Terminal Aerodrome Forecast
Issued by NWS

Home | Current Version | Previous Version | Text Only | Print | Product List | Glossary On
Versions: 1 2 3 4 5 6 7 8 9 10 11 12
000
FTAK31 PAFA 291138
TAFAOM
TAF
PAOM 291138Z 2912/3012 33006KT P6SM SCT080 BKN180
     FM291400 34005KT P6SM VCSH SCT045 BKN080 BKN150
      TEMPO 2914/2918 4SM -SHRASN BKN045
     FM291800 01005KT P6SM VCSH BKN040 BKN100
     FM300000 22008KT P6SM VCSH BKN035 OVC060=

USA.gov is the U.S. government's official web portal to all federal, state and local government web resources and services.